Aeroporto :
LOGIN :

Iscrizione | Disclaimer

   EN    FR    IT 

 










Sommario :    VFR   VFR Marginale   IFR   IFR Intensivo   IFR Molto Intensivo
Visibilità : 
Base nubi : 
>= 8 km
>= 3000ft
5 / 8 km
1000 / 3000 ft
1500m / 5 km
500 / 1000 ft
800 / 1500m
200 / 500 ft
< 800m
< 200 ft
Simboli :   Temporali  Nebbia  Neve Forte  Precipitazioni Forti  Vento > 20 kt
SIGMETs :   Varie  Temporali  Ghiacco  Turbolenza  Onda orograficha  Ceneri Vulcaniche






- Altitudine del aeroporto : 436 ft
- Codice IATA : BTS


LZIB - Bratislava

ULTIMO METAR :
  • 150200Z 05005KT 9999 FEW009 BKN026 06/05 Q1011

METARs OBSOLETI :
  • 150130Z 04004KT 020V080 9999 FEW009 BKN028 06/05 Q1011
  • 150100Z 05004KT 9999 FEW009 BKN029 05/05 Q1011
  • 150030Z 04005KT 9999 FEW008 BKN029 05/04 Q1011
  • 150000Z 04006KT 9999 FEW008 BKN029 05/04 Q1011
  • 142330Z 04006KT 9999 FEW008 BKN030 05/04 Q1011

TAF TAF LZIB
Valido dal 15 a 00 ore il 16 a 00 ore UTC


142300Z 1500/1600 07005KT 9999 FEW012 BKN035
TEMPO 1500/1509 VRB02KT 3000 BR SCT006
PROB40
TEMPO 1502/1507 0700 FG BKN002
BECMG 1509/1511 12010KT
TEMPO 1513/1522 -RA SCT020 BKN063



MetMap, La meteo Aeronautica in un colpo d'occhio ! - Copyright ORBIFLY Dicembre 2007 - Disclaimer

ORBIFLY MET'MAP TEAM :

Programmazione e sviluppo : Alexandra Zaïnal
Concezione e sviluppo : Baudouin d'Aumeries
Co-Programmazione e sviluppo : Marc-Olivier Méhu
Supporto tecnico e logistico : Manuel Goepfert
Aiuto per la traduzione : Arnaldo La Scala

Contatto : metmap@orbifly.com




FONTI E CREDITI :

   NOAA